Data for 01/28/2013

Time Sea-Level Adjusted Pressure Absolute Pressure Temperature Relative Humidity Dew Point   
(mb) (inHg) (mb) (inHg) (C) (F) (%) (C) (F)
00:05 1011 29.85 841 24.83 -4.6 23.8 78 -7.9 17.8
00:10 1011 29.85 841 24.83 -4.6 23.7 80 -7.6 18.4
00:15 1011 29.85 841 24.83 -4.7 23.6 78 -7.9 17.9
00:20 1012 29.88 841 24.83 -4.7 23.5 78 -8 17.6
00:25 1012 29.88 841 24.83 -4.8 23.3 78 -8.2 17.3
00:30 1012 29.88 841 24.83 -5 23 78 -8.3 17.1
00:35 1012 29.88 841 24.83 -5.1 22.8 78 -8.4 16.8
00:40 1012 29.88 841 24.83 -5.3 22.5 78 -8.6 16.5
00:45 1012 29.88 841 24.83 -5.3 22.4 78 -8.5 16.6
00:50 1012 29.88 841 24.83 -5.2 22.6 78 -8.4 16.8
00:55 1012 29.88 841 24.83 -5.2 22.7 77 -8.6 16.6
01:00 1012 29.88 841 24.83 -5.3 22.5 78 -8.6 16.5
01:05 1012 29.88 841 24.83 -5.4 22.3 78 -8.7 16.3
01:10 1012 29.88 841 24.83 -5.4 22.3 78 -8.7 16.3
01:15 1012 29.88 841 24.83 -5.4 22.3 78 -8.7 16.4
01:20 1012 29.88 841 24.83 -5.5 22.2 78 -8.7 16.3
01:25 1012 29.88 841 24.83 -5.6 22 78 -8.9 16
01:30 1012 29.88 841 24.83 -5.5 22.1 78 -8.8 16.1
01:35 1012 29.88 841 24.83 -5.5 22.1 77 -8.9 16.1
01:40 1012 29.88 841 24.83 -5.5 22.2 77 -9 15.9
01:45 1012 29.88 841 24.83 -5.5 22.2 77 -8.8 16.1
01:50 1012 29.88 841 24.83 -5.6 22 78 -8.9 16
01:55 1011 29.85 841 24.83 -5.5 22 77 -8.9 15.9
02:00 1011 29.85 841 24.83 -5.6 22 78 -8.9 16
02:05 1011 29.85 841 24.83 -5.5 22.1 77 -8.9 15.9
02:10 1011 29.85 841 24.83 -5.3 22.4 76 -8.9 15.9
02:15 1011 29.85 841 24.83 -5.3 22.4 76 -8.9 15.9
02:20 1011 29.85 841 24.83 -5.4 22.4 77 -8.9 16.1
02:25 1011 29.85 841 24.83 -5.3 22.5 78 -8.5 16.7
02:30 1011 29.85 841 24.83 -5.3 22.4 79 -8.4 16.8
02:35 1011 29.85 841 24.83 -5.3 22.4 77 -8.7 16.4
02:40 1012 29.88 841 24.83 -5 22.9 76 -8.7 16.4
02:45 1011 29.85 841 24.83 -4.8 23.3 76 -8.5 16.8
02:50 1011 29.85 841 24.83 -4.8 23.3 76 -8.5 16.7
02:55 1011 29.85 841 24.83 -4.9 23.3 75 -8.6 16.5
03:00 1012 29.88 841 24.83 -4.8 23.4 74 -8.7 16.3
03:05 1012 29.88 841 24.83 -4.8 23.4 74 -8.6 16.5
03:10 1012 29.88 841 24.83 -4.8 23.3 75 -8.6 16.5
03:15 1011 29.85 841 24.83 -4.8 23.4 75 -8.6 16.5
03:20 1012 29.88 841 24.83 -4.8 23.3 75 -8.7 16.4
03:25 1012 29.88 841 24.83 -4.9 23.2 74 -8.9 16.1
03:30 1012 29.88 841 24.83 -4.9 23.2 73 -9 15.9
03:35 1012 29.88 841 24.83 -4.9 23.2 73 -9 15.7
03:40 1012 29.88 841 24.83 -4.9 23.2 74 -8.9 15.9
03:45 1011 29.85 841 24.83 -5 23 74 -8.9 15.9
03:50 1011 29.85 841 24.83 -5.1 22.9 74 -9 15.8
03:55 1011 29.85 841 24.83 -5 23 74 -9 15.7
04:00 1011 29.85 841 24.83 -4.9 23.1 73 -9 15.8
04:05 1011 29.85 841 24.83 -4.9 23.2 71 -9.3 15.2
04:10 1011 29.85 841 24.83 -4.9 23.2 71 -9.4 15.1
04:15 1011 29.85 841 24.83 -4.9 23.2 71 -9.4 15.1
04:20 1011 29.85 841 24.83 -4.9 23.1 72 -9.3 15.2
04:25 1011 29.85 841 24.83 -5 22.9 72 -9.3 15.3
04:30 1011 29.85 841 24.83 -5.2 22.7 73 -9.3 15.2
04:35 1011 29.85 841 24.83 -5.3 22.5 74 -9.3 15.3
04:40 1011 29.85 841 24.83 -5.4 22.3 74 -9.2 15.4
04:45 1011 29.85 841 24.83 -5.4 22.3 75 -9.2 15.4
04:50 1011 29.85 841 24.83 -5.4 22.3 75 -9.1 15.6
04:55 1011 29.85 841 24.83 -5.4 22.2 76 -9 15.8
05:00 1011 29.85 841 24.83 -5.5 22.1 76 -9 15.8
05:05 1011 29.85 841 24.83 -5.5 22 76 -9.1 15.6
05:10 1011 29.85 841 24.83 -5.6 22 77 -9 15.8
05:15 1011 29.85 841 24.83 -5.6 21.9 77 -9.1 15.7
05:20 1011 29.85 841 24.83 -5.6 21.9 77 -9 15.8
05:25 1011 29.85 841 24.83 -5.5 22.1 77 -8.9 16
05:30 1012 29.88 841 24.83 -5.6 22 78 -8.7 16.3
05:35 1012 29.88 841 24.83 -5.7 21.8 79 -8.7 16.4
05:40 1012 29.88 841 24.83 -5.7 21.8 80 -8.6 16.5
05:45 1012 29.88 841 24.83 -5.7 21.8 80 -8.6 16.6
05:50 1012 29.88 841 24.83 -5.6 21.9 79 -8.6 16.4
05:55 1012 29.88 841 24.83 -5.6 22 79 -8.6 16.6
06:00 1012 29.88 841 24.83 -5.5 22.1 79 -8.6 16.5
06:05 1012 29.88 841 24.83 -5.6 22 79 -8.7 16.4
06:10 1012 29.88 841 24.83 -5.6 22 78 -8.8 16.2
06:15 1012 29.88 841 24.83 -5.6 21.9 77 -8.9 15.9
06:20 1012 29.88 841 24.83 -5.6 21.9 77 -9.1 15.6
06:25 1012 29.88 841 24.83 -5.5 22 76 -9.1 15.6
06:30 1012 29.88 841 24.83 -5.6 22 77 -9.1 15.7
06:35 1012 29.88 841 24.83 -5.6 22 76 -9.2 15.5
06:40 1012 29.88 841 24.83 -5.5 22.2 73 -9.5 14.9
06:45 1012 29.88 841 24.83 -5.4 22.3 74 -9.4 15.1
06:50 1012 29.88 841 24.83 -5.3 22.5 72 -9.6 14.8
06:55 1012 29.88 841 24.83 -5.3 22.5 72 -9.7 14.6
07:00 1012 29.88 841 24.83 -5.3 22.5 71 -9.7 14.5
07:05 1012 29.88 841 24.83 -5.2 22.6 69 -10.1 13.8
07:10 1012 29.88 841 24.83 -5.3 22.5 69 -10.1 13.8
07:15 1012 29.88 841 24.83 -5.3 22.5 67 -10.4 13.3
07:20 1012 29.88 841 24.83 -5.3 22.4 67 -10.5 13
07:25 1012 29.88 841 24.83 -5.4 22.3 67 -10.5 13
07:30 1012 29.88 841 24.83 -5.5 22.2 67 -10.7 12.7
07:35 1012 29.88 841 24.83 -5.5 22.1 66 -10.8 12.6
07:40 1012 29.88 841 24.83 -5.5 22.1 67 -10.7 12.7
07:45 1012 29.88 841 24.83 -5.5 22 66 -10.9 12.4
07:50 1012 29.88 841 24.83 -5.5 22.1 67 -10.7 12.7
07:55 1012 29.88 841 24.83 -5.5 22.2 65 -11 12.1
08:00 1012 29.88 841 24.83 -5.4 22.3 64 -11.1 12
08:05 1012 29.88 841 24.83 -5.4 22.4 64 -11.2 11.9
08:10 1012 29.88 841 24.83 -5.3 22.4 64 -11.1 12
08:15 1012 29.88 841 24.83 -5.5 22.1 65 -11 12.1
08:20 1012 29.88 841 24.83 -5.7 21.7 67 -10.9 12.4
08:25 1012 29.88 841 24.83 -5.7 21.7 64 -11.4 11.4
08:30 1012 29.88 841 24.83 -5.7 21.7 64 -11.4 11.4
08:35 1012 29.88 841 24.83 -5.8 21.5 64 -11.5 11.3
08:40 1012 29.88 841 24.83 -5.8 21.6 64 -11.5 11.2
08:45 1012 29.88 841 24.83 -5.7 21.7 63 -11.7 11
08:50 1012 29.88 841 24.83 -5.7 21.8 62 -11.8 10.7
08:55 1012 29.88 841 24.83 -5.6 21.9 62 -11.8 10.7
09:00 1012 29.88 841 24.83 -5.7 21.7 62 -11.8 10.8
09:05 1012 29.88 841 24.83 -5.7 21.7 62 -11.8 10.7
09:10 1012 29.88 841 24.83 -5.6 21.8 62 -11.8 10.8
09:15 1012 29.88 841 24.83 -5.6 22 62 -11.7 10.9
09:20 1012 29.88 841 24.83 -5.8 21.6 63 -11.8 10.8
09:25 1012 29.88 841 24.83 -6.1 21.1 63 -12 10.5
09:30 1012 29.88 841 24.83 -6.1 21 66 -11.5 11.3
09:35 1012 29.88 841 24.83 -6.2 20.9 67 -11.3 11.7
09:40 1012 29.88 841 24.83 -6.1 21.1 68 -11 12.3
09:45 1012 29.88 841 24.83 -5.7 21.7 67 -11 12.3
09:50 1012 29.88 841 24.83 -5.2 22.6 63 -11.3 11.7
09:55 1012 29.88 841 24.83 -5.1 22.8 63 -11.1 12.1
10:00 1012 29.88 841 24.83 -4.9 23.1 63 -10.9 12.4
10:05 1012 29.88 841 24.83 -4 24.7 57 -11.3 11.7
10:10 1012 29.88 841 24.83 -3.6 25.4 55 -11.3 11.6
10:15 1012 29.88 841 24.83 -3.4 25.8 57 -10.7 12.8
10:20 1012 29.88 841 24.83 -2.6 27.3 51 -11.5 11.3
10:25 1012 29.88 841 24.83 -3.2 26.2 56 -10.8 12.5
10:30 1012 29.88 841 24.83 -3.5 25.6 59 -10.4 13.3
10:35 1012 29.88 841 24.83 -3.9 25 60 -10.5 13.1
10:40 1012 29.88 841 24.83 -3.5 25.6 60 -10.3 13.5
10:45 1012 29.88 841 24.83 -3.4 25.9 58 -10.4 13.2
10:50 1012 29.88 841 24.83 -3.8 25.2 57 -11.1 12.1
10:55 1012 29.88 841 24.83 -4 24.8 59 -10.8 12.6
11:00 1012 29.88 841 24.83 -3.9 25 61 -10.4 13.3
11:05 1012 29.88 841 24.83 -4 24.8 60 -10.7 12.8
11:10 1012 29.88 841 24.83 -4 24.8 60 -10.7 12.8
11:15 1012 29.88 841 24.83 -4 24.9 61 -10.4 13.3
11:20 1012 29.88 841 24.83 -3.7 25.4 59 -10.7 12.8
11:25 1012 29.88 841 24.83 -3.7 25.3 59 -10.6 12.9
11:30 1012 29.88 841 24.83 -3.3 26.1 55 -11 12.2
11:35 1012 29.88 841 24.83 -3.4 25.9 56 -10.9 12.4
11:40 1012 29.88 841 24.83 -3.2 26.3 53 -11.4 11.6
11:45 1012 29.88 841 24.83 -3.6 25.5 55 -11.5 11.3
11:50 1012 29.88 841 24.83 -3.7 25.3 56 -11.3 11.6
11:55 1012 29.88 841 24.83 -3.6 25.5 56 -11.1 12.1
12:00 1012 29.88 841 24.83 -3.6 25.5 54 -11.6 11.1
12:05 1012 29.88 841 24.83 -3.4 25.9 54 -11.3 11.6
12:10 1012 29.88 841 24.83 -3.9 25 56 -11.4 11.5
12:15 1012 29.88 841 24.83 -3.6 25.5 54 -11.7 10.9
12:20 1012 29.88 841 24.83 -3.4 25.8 53 -11.8 10.8
12:25 1012 29.88 841 24.83 -3.9 24.9 55 -11.7 10.9
12:30 1012 29.88 841 24.83 -3.6 25.5 55 -11.3 11.6
12:35 1012 29.88 841 24.83 -3.7 25.3 56 -11.2 11.8
12:40 1012 29.88 841 24.83 -3.7 25.3 56 -11.3 11.7
12:45 1012 29.88 841 24.83 -3.9 25 57 -11.3 11.7
12:50 1012 29.88 841 24.83 -3.6 25.6 53 -11.8 10.7
12:55 1011 29.85 841 24.83 -2.2 28.1 51 -11.1 12
13:00 1011 29.85 841 24.83 -1.1 29.9 47 -11.2 11.9
13:05 1011 29.85 841 24.83 -0.8 30.5 45 -11.4 11.4
13:10 1011 29.85 841 24.83 -1.9 28.5 50 -11.1 12
13:15 1011 29.85 841 24.83 -1.5 29.4 47 -11.3 11.6
13:20 1011 29.85 840 24.81 -1.2 29.8 47 -11.1 11.9
13:25 1011 29.85 840 24.81 -0.9 30.4 45 -11.3 11.7
13:30 1011 29.85 840 24.81 -0.9 30.3 47 -10.8 12.5
13:35 1011 29.85 840 24.81 -1.2 29.9 48 -10.9 12.3
13:40 1011 29.85 840 24.81 -1.3 29.7 50 -10.5 13.2
13:45 1011 29.85 840 24.81 -1.2 29.8 49 -10.5 13.1
13:50 1011 29.85 840 24.81 -1.3 29.7 52 -10 14
13:55 1011 29.85 840 24.81 -1.7 28.9 52 -10.4 13.3
14:00 1011 29.85 840 24.81 -2 28.4 54 -10.1 13.7
14:05 1011 29.85 840 24.81 -2.1 28.3 47 -12 10.3
14:10 1011 29.85 840 24.81 -1.9 28.6 49 -11.3 11.6
14:15 1011 29.85 840 24.81 -1 30.3 49 -10.3 13.5
14:20 1011 29.85 840 24.81 -1.2 29.8 48 -10.9 12.4
14:25 1010 29.83 840 24.81 -1.6 29.2 48 -11.1 12
14:30 1010 29.83 840 24.81 -1.2 29.9 43 -12.2 10
14:35 1010 29.83 840 24.81 -0.4 31.3 42 -11.9 10.6
14:40 1010 29.83 840 24.81 -0.3 31.5 41 -12.2 10.1
14:45 1010 29.83 840 24.81 -0.3 31.5 43 -11.5 11.3
14:50 1010 29.83 839 24.78 -0.1 31.8 43 -11.3 11.6
14:55 1010 29.83 839 24.78 -0.1 31.8 43 -11.3 11.7
15:00 1010 29.83 839 24.78 -0 31.9 40 -12 10.5
15:05 1010 29.83 839 24.78 -0.1 31.9 41 -11.8 10.8
15:10 1010 29.83 839 24.78 -0.1 31.9 41 -11.8 10.7
15:15 1010 29.83 839 24.78 -0.1 31.8 42 -11.6 11
15:20 1010 29.83 839 24.78 -0.3 31.5 44 -11.2 11.9
15:25 1010 29.83 839 24.78 -0.8 30.6 45 -11.3 11.7
15:30 1010 29.83 839 24.78 -0.9 30.4 45 -11.5 11.2
15:35 1010 29.83 839 24.78 -1.1 30.1 45 -11.6 11.2
15:40 1010 29.83 839 24.78 -0.9 30.3 44 -11.6 11.1
15:45 1010 29.83 839 24.78 -0.7 30.8 45 -11.2 11.8
15:50 1010 29.83 839 24.78 -1 30.3 45 -11.5 11.2
15:55 1010 29.83 839 24.78 -0.8 30.6 42 -12.2 10.1
16:00 1010 29.83 839 24.78 -0.3 31.5 44 -11.3 11.7
16:05 1010 29.83 839 24.78 -0.4 31.3 41 -12 10.4
16:10 1010 29.83 839 24.78 -0.3 31.5 41 -12 10.4
16:15 1010 29.83 839 24.78 -0.2 31.6 41 -12.1 10.2
16:20 1010 29.83 839 24.78 0.2 32.3 39 -12.3 9.9
16:25 1010 29.83 839 24.78 0.5 32.9 39 -12 10.4
16:30 1010 29.83 839 24.78 0.3 32.5 40 -11.8 10.8
16:35 1010 29.83 839 24.78 0.2 32.4 38 -12.6 9.2
16:40 1010 29.83 839 24.78 -0 31.9 39 -12.3 9.9
16:45 1010 29.83 839 24.78 -0.2 31.6 41 -11.9 10.6
16:50 1010 29.83 839 24.78 -0.7 30.8 42 -12 10.4
16:55 1010 29.83 839 24.78 -1.2 29.8 42 -12.5 9.5
17:00 1010 29.83 839 24.78 -1.6 29.1 44 -12.2 10
17:05 1010 29.83 839 24.78 -2 28.5 45 -12.4 9.7
17:10 1010 29.83 839 24.78 -2.1 28.2 45 -12.6 9.4
17:15 1010 29.83 839 24.78 -2.1 28.1 45 -12.6 9.4
17:20 1010 29.83 839 24.78 -2.1 28.2 42 -13.3 8.1
17:25 1010 29.83 839 24.78 -2.1 28.3 45 -12.4 9.7
17:30 1010 29.83 839 24.78 -1.6 29.1 43 -12.6 9.4
17:35 1010 29.83 839 24.78 -1.8 28.7 45 -12.4 9.7
17:40 1010 29.83 839 24.78 -1.7 29 45 -12 10.3
17:45 1010 29.83 839 24.78 -1.7 29 45 -12.1 10.3
17:50 1010 29.83 839 24.78 -1.8 28.8 43 -12.8 8.9
17:55 1010 29.83 839 24.78 -2.1 28.2 44 -12.9 8.8
18:00 1010 29.83 839 24.78 -2.8 27 44 -13.5 7.7
18:05 1010 29.83 839 24.78 -3.4 25.9 45 -13.7 7.4
18:10 1010 29.83 839 24.78 -3.4 25.9 46 -13.3 8
18:15 1010 29.83 839 24.78 -3.7 25.4 47 -13.5 7.7
18:20 1010 29.83 839 24.78 -4.1 24.6 47 -13.7 7.3
18:25 1010 29.83 839 24.78 -4.4 24.1 47 -14.2 6.4
18:30 1010 29.83 839 24.78 -4.1 24.5 45 -14.3 6.3
18:35 1010 29.83 839 24.78 -4.1 24.6 45 -14.3 6.3
18:40 1010 29.83 839 24.78 -4.1 24.7 45 -14.4 6
18:45 1009 29.8 839 24.78 -3.9 24.9 44 -14.5 5.9
18:50 1009 29.8 839 24.78 -3.9 25 43 -14.7 5.6
18:55 1009 29.8 839 24.78 -3.8 25.2 47 -13.6 7.5
19:00 1009 29.8 839 24.78 -4.2 24.4 48 -13.8 7.2
19:05 1009 29.8 839 24.78 -4.7 23.6 47 -14.4 6.1
19:10 1009 29.8 839 24.78 -4.9 23.2 48 -14.4 6.1
19:15 1009 29.8 839 24.78 -5.1 22.9 49 -14.2 6.5
19:20 1009 29.8 839 24.78 -5 23 50 -14 6.9
19:25 1009 29.8 839 24.78 -5 23.1 49 -14.1 6.6
19:30 1009 29.8 839 24.78 -4.9 23.2 48 -14.2 6.4
19:35 1009 29.8 839 24.78 -4.9 23.1 49 -14.1 6.7
19:40 1009 29.8 839 24.78 -4.9 23.3 50 -13.6 7.4
19:45 1009 29.8 838 24.75 -5 23.1 54 -13 8.6
19:50 1009 29.8 838 24.75 -5.1 22.8 54 -13 8.6
19:55 1009 29.8 838 24.75 -5.2 22.7 54 -13 8.5
20:00 1009 29.8 838 24.75 -5.3 22.4 57 -12.4 9.6
20:05 1009 29.8 838 24.75 -5.5 22 57 -12.8 9
20:10 1009 29.8 838 24.75 -5.5 22.1 57 -12.8 9
20:15 1009 29.8 838 24.75 -5.5 22.2 56 -13 8.7
20:20 1009 29.8 838 24.75 -5.4 22.3 56 -12.9 8.8
20:25 1009 29.8 838 24.75 -5.4 22.3 56 -12.8 8.9
20:30 1009 29.8 838 24.75 -5.3 22.5 55 -12.9 8.7
20:35 1009 29.8 838 24.75 -5.2 22.6 55 -12.8 9
20:40 1009 29.8 838 24.75 -5.2 22.7 54 -13.1 8.5
20:45 1009 29.8 838 24.75 -5.1 22.7 52 -13.6 7.5
20:50 1009 29.8 838 24.75 -5.3 22.5 53 -13.5 7.6
20:55 1009 29.8 838 24.75 -5.2 22.6 53 -13.4 7.9
21:00 1009 29.8 838 24.75 -5.2 22.7 52 -13.5 7.8
21:05 1009 29.8 838 24.75 -5.1 22.9 56 -12.7 9.2
21:10 1009 29.8 838 24.75 -5 23.1 54 -12.9 8.7
21:15 1009 29.8 838 24.75 -4.8 23.3 53 -13.1 8.5
21:20 1009 29.8 838 24.75 -4.8 23.4 53 -13 8.6
21:25 1009 29.8 838 24.75 -4.8 23.4 53 -13 8.6
21:30 1009 29.8 838 24.75 -4.7 23.5 54 -12.7 9.1
21:35 1009 29.8 838 24.75 -4.8 23.4 54 -12.6 9.2
21:40 1009 29.8 838 24.75 -4.8 23.3 55 -12.5 9.5
21:45 1009 29.8 838 24.75 -4.9 23.2 54 -12.8 9
21:50 1009 29.8 838 24.75 -4.9 23.2 56 -12.5 9.6
21:55 1009 29.8 838 24.75 -4.8 23.4 53 -12.9 8.8
22:00 1009 29.8 838 24.75 -4.8 23.4 55 -12.6 9.3
22:05 1009 29.8 838 24.75 -4.6 23.6 56 -12.2 10.1
22:10 1009 29.8 838 24.75 -4.5 23.9 55 -12.3 9.8
22:15 1009 29.8 838 24.75 -4.4 24 55 -12.1 10.3
22:20 1009 29.8 838 24.75 -4.3 24.2 54 -12.3 9.8
22:25 1009 29.8 838 24.75 -4.2 24.5 52 -12.7 9.1
22:30 1008 29.77 838 24.75 -4.2 24.4 51 -13 8.6
22:35 1008 29.77 838 24.75 -4.3 24.3 55 -12 10.4
22:40 1008 29.77 838 24.75 -4.3 24.2 54 -12.3 9.9
22:45 1008 29.77 838 24.75 -4.4 24.1 53 -12.6 9.2
22:50 1008 29.77 837 24.72 -4.4 24 51 -13 8.6
22:55 1008 29.77 837 24.72 -4.5 24 55 -12.2 10
23:00 1008 29.77 837 24.72 -4.4 24 53 -12.6 9.4
23:05 1008 29.77 837 24.72 -4.4 24 53 -12.7 9.1
23:10 1008 29.77 837 24.72 -4.3 24.2 55 -12.1 10.2
23:15 1008 29.77 837 24.72 -4.4 24.1 52 -12.9 8.7
23:20 1008 29.77 837 24.72 -4.5 24 54 -12.3 9.8
23:25 1008 29.77 837 24.72 -4.4 24.1 53 -12.6 9.3
23:30 1008 29.77 837 24.72 -4.5 23.9 54 -12.5 9.5
23:35 1008 29.77 837 24.72 -4.6 23.7 54 -12.6 9.3
23:40 1008 29.77 837 24.72 -4.6 23.7 55 -12.4 9.7
23:45 1008 29.77 837 24.72 -4.7 23.6 55 -12.4 9.7
23:50 1008 29.77 837 24.72 -4.7 23.5 55 -12.3 9.8
23:55 1008 29.77 837 24.72 -4.8 23.4 57 -12 10.4
24:00 1008 29.77 837 24.72 -4.9 23.2 57 -12.1 10.3